aviador You're here:

LKKV Decoded Metar

KARLOVY VARY in CZECH REPUBLIC
Report Time2018-02-20 03:00:00
UTC Time2018-02-20 03:25:30
Flight Rules mvfr MVFR
Wind080° at 04 kt
W.Decomp.*RWY 11: 3.4 kt HW 2.2 kt LCW
W.Rank080° ranks 13
Current wind is below 080° avg. (5.0)
Visibility9999 m
Phenomena:N/A
Clouds:Broken 013 Hf
Expected CloudBase > 800 ft AGL from Temp-Dew spread
Ceiling1,300 ft
Temp-4°C (ISA -15)
Dew Point-6°C (86% RH)
AAT-8.2°C
QNH1014 hPa
Density Alt161 ft
Elevation1,982 ft
Report Wrong Elevation
Raw Report
LKKV 200300Z 08004KT 9999 BKN013 M04/M06 Q1014=

Extra information for LKKV:More info

Metar Taf Metar & Taf Last 4 Metars F.Rules Stats Wind Profile Meteogram Temp Stats Airport Information Weather charts Add Link Nearby VenuesMetar ALERT Operation Metar Decoded Social comments